createdAt,value
2022-10-23T00:01:48.508Z,18.48
2022-10-23T00:04:19.303Z,16.38
2022-10-23T00:06:49.123Z,14.90
2022-10-23T00:09:19.873Z,15.60
2022-10-23T00:11:50.289Z,14.98
2022-10-23T00:14:22.631Z,15.30
2022-10-23T00:16:51.482Z,13.95
2022-10-23T00:19:20.321Z,13.30
2022-10-23T00:21:49.179Z,12.50
2022-10-23T00:24:17.969Z,11.60
2022-10-23T00:26:46.791Z,12.73
2022-10-23T00:29:15.604Z,12.50
2022-10-23T00:31:45.820Z,17.58
2022-10-23T00:34:14.653Z,18.85
2022-10-23T00:36:43.490Z,18.63
2022-10-23T00:39:12.465Z,17.48
2022-10-23T00:41:41.324Z,17.52
2022-10-23T00:44:12.641Z,17.15
2022-10-23T00:46:41.551Z,17.40
2022-10-23T00:51:44.303Z,16.20
2022-10-23T00:54:30.429Z,13.70
2022-10-23T00:57:03.329Z,12.98
2022-10-23T00:59:32.984Z,12.52
2022-10-23T01:02:02.148Z,12.85
2022-10-23T01:04:33.446Z,14.02
2022-10-23T01:07:09.390Z,14.73
2022-10-23T01:09:44.264Z,13.32
2022-10-23T01:12:20.745Z,12.35
2022-10-23T01:15:00.752Z,14.63
2022-10-23T01:17:40.802Z,14.50
2022-10-23T01:20:27.097Z,14.40
2022-10-23T01:23:23.356Z,15.45
2022-10-23T01:26:25.575Z,12.65
2022-10-23T01:29:03.247Z,13.80
2022-10-23T01:31:37.047Z,13.75
2022-10-23T01:34:13.137Z,14.23
2022-10-23T01:36:48.210Z,15.75
2022-10-23T01:39:23.767Z,15.13
2022-10-23T01:41:56.345Z,14.63
2022-10-23T01:44:35.367Z,14.63
2022-10-23T01:47:07.075Z,16.80
2022-10-23T01:49:44.051Z,18.52
2022-10-23T01:52:15.326Z,13.20
2022-10-23T01:54:49.202Z,16.38
2022-10-23T01:57:21.811Z,15.82
2022-10-23T01:59:57.120Z,16.42
2022-10-23T02:02:28.044Z,14.02
2022-10-23T02:05:03.257Z,13.45
2022-10-23T02:07:32.268Z,14.50
2022-10-23T02:10:01.984Z,11.55
2022-10-23T02:12:41.634Z,10.70
2022-10-23T02:15:17.160Z,10.48
2022-10-23T02:17:52.928Z,11.20
2022-10-23T02:20:29.214Z,12.13
2022-10-23T02:23:04.091Z,11.35
2022-10-23T02:25:37.616Z,11.20
2022-10-23T02:28:11.049Z,14.13
2022-10-23T02:30:51.246Z,14.02
2022-10-23T02:33:20.918Z,13.37
2022-10-23T02:35:50.055Z,13.75
2022-10-23T02:38:33.049Z,11.75
2022-10-23T02:41:13.903Z,11.93
2022-10-23T02:43:49.314Z,11.20
2022-10-23T02:46:26.124Z,11.88
2022-10-23T02:49:05.175Z,11.18
2022-10-23T02:51:45.568Z,7.43
2022-10-23T02:54:27.093Z,9.15
2022-10-23T02:57:03.241Z,7.93
2022-10-23T02:59:38.385Z,6.97
2022-10-23T03:02:18.209Z,8.80
2022-10-23T03:04:48.033Z,6.90
2022-10-23T03:07:20.062Z,7.53
2022-10-23T03:09:49.698Z,9.27
2022-10-23T03:12:18.714Z,8.05
2022-10-23T03:14:47.557Z,7.18
2022-10-23T03:17:17.905Z,7.07
2022-10-23T03:19:48.658Z,8.02
2022-10-23T03:22:17.578Z,7.40
2022-10-23T03:24:46.677Z,7.57
2022-10-23T03:27:16.458Z,11.98
2022-10-23T03:29:45.373Z,11.07
2022-10-23T03:32:17.860Z,9.70
2022-10-23T03:34:47.071Z,9.07
2022-10-23T03:37:15.912Z,9.00
2022-10-23T03:39:44.922Z,10.23
2022-10-23T03:42:13.801Z,7.97
2022-10-23T03:44:42.667Z,6.63
2022-10-23T03:47:12.115Z,7.75
2022-10-23T03:49:42.455Z,9.85
2022-10-23T03:52:11.305Z,10.10
2022-10-23T03:54:40.132Z,12.25
2022-10-23T03:57:09.161Z,13.10
2022-10-23T03:59:38.265Z,14.18
2022-10-23T04:02:08.597Z,14.20
2022-10-23T04:04:37.533Z,13.15
2022-10-23T04:07:07.857Z,8.88
2022-10-23T04:09:36.792Z,10.48
2022-10-23T04:12:06.846Z,9.80
2022-10-23T04:14:35.693Z,9.30
2022-10-23T04:17:05.467Z,8.98
2022-10-23T04:19:34.293Z,10.02
2022-10-23T04:22:03.153Z,8.88
2022-10-23T04:24:33.427Z,8.90
2022-10-23T04:27:03.739Z,10.57
2022-10-23T04:29:33.182Z,8.55
2022-10-23T04:32:02.212Z,9.63
2022-10-23T04:34:31.092Z,7.93
2022-10-23T04:37:00.004Z,15.95
2022-10-23T04:39:29.505Z,20.10
2022-10-23T04:41:59.758Z,18.50
2022-10-23T04:44:28.595Z,17.85
2022-10-23T04:46:57.393Z,15.02
2022-10-23T04:49:26.645Z,15.20
2022-10-23T04:52:13.218Z,11.82
2022-10-23T04:55:09.328Z,10.43
2022-10-23T04:57:55.901Z,11.98
2022-10-23T05:00:27.070Z,10.07
2022-10-23T05:02:58.613Z,10.48
2022-10-23T05:05:33.537Z,10.95
2022-10-23T05:08:08.932Z,11.07
2022-10-23T05:11:06.899Z,14.18
2022-10-23T05:13:42.527Z,14.07
2022-10-23T05:16:12.409Z,16.00
2022-10-23T05:18:48.284Z,14.88
2022-10-23T05:21:23.271Z,17.55
2022-10-23T05:23:52.227Z,17.70
2022-10-23T05:26:22.437Z,20.58
2022-10-23T05:28:55.686Z,18.83
2022-10-23T05:31:25.772Z,18.52
2022-10-23T05:33:58.667Z,17.55
2022-10-23T05:36:28.422Z,15.27
2022-10-23T05:38:59.993Z,19.08
2022-10-23T05:41:29.667Z,24.08
2022-10-23T05:44:02.169Z,19.30
2022-10-23T05:47:09.375Z,14.50
2022-10-23T05:49:41.100Z,16.02
2022-10-23T05:52:32.938Z,13.88
2022-10-23T05:55:20.137Z,13.90
2022-10-23T05:58:00.214Z,12.43
2022-10-23T06:00:50.942Z,12.32
2022-10-23T06:03:40.898Z,13.05
2022-10-23T06:06:12.871Z,10.65
2022-10-23T06:08:46.610Z,11.30
2022-10-23T06:11:16.834Z,12.23
2022-10-23T06:13:53.934Z,9.80
2022-10-23T06:16:26.948Z,10.43
2022-10-23T06:18:57.489Z,9.73
2022-10-23T06:21:26.476Z,9.52
2022-10-23T06:23:56.570Z,11.95
2022-10-23T06:26:28.289Z,10.50
2022-10-23T06:29:06.339Z,12.25
2022-10-23T06:31:36.727Z,11.35
2022-10-23T06:34:07.126Z,11.65
2022-10-23T06:36:38.014Z,11.15
2022-10-23T06:39:15.841Z,10.57
2022-10-23T06:41:58.605Z,9.73
2022-10-23T06:44:45.773Z,7.18
2022-10-23T06:47:20.579Z,6.13
2022-10-23T06:50:21.333Z,5.07
2022-10-23T06:52:50.675Z,5.05
2022-10-23T06:55:20.361Z,4.75
2022-10-23T06:57:49.782Z,4.18
2022-10-23T07:00:21.548Z,4.68
2022-10-23T07:02:54.755Z,3.70
2022-10-23T07:05:24.734Z,5.45
2022-10-23T07:07:54.162Z,3.88
2022-10-23T07:10:27.837Z,2.83
2022-10-23T07:13:01.186Z,3.97
2022-10-23T07:15:32.811Z,4.28
2022-10-23T07:18:03.833Z,4.65
2022-10-23T07:20:48.215Z,3.63
2022-10-23T07:23:17.535Z,3.67
2022-10-23T07:25:47.082Z,5.18
2022-10-23T07:30:57.823Z,4.72
2022-10-23T07:33:30.975Z,4.93
2022-10-23T07:36:11.863Z,4.65
2022-10-23T07:38:41.364Z,3.45
2022-10-23T07:41:12.439Z,4.25
2022-10-23T07:43:41.545Z,5.47
2022-10-23T07:46:10.570Z,4.32
2022-10-23T07:48:42.851Z,3.67
2022-10-23T07:51:15.843Z,4.70
2022-10-23T07:53:51.274Z,2.83
2022-10-23T07:56:52.097Z,2.15
2022-10-23T07:59:43.483Z,3.10
2022-10-23T08:02:16.656Z,2.45
2022-10-23T08:04:50.129Z,1.40
2022-10-23T08:07:26.955Z,2.08
2022-10-23T08:09:58.575Z,2.65
2022-10-23T08:12:27.994Z,2.72
2022-10-23T08:14:57.551Z,2.67
2022-10-23T08:17:31.613Z,2.67
2022-10-23T08:20:10.235Z,2.38
2022-10-23T08:22:44.073Z,1.23
2022-10-23T08:25:15.550Z,1.08
2022-10-23T08:27:44.811Z,1.15
2022-10-23T08:30:16.111Z,1.45
2022-10-23T08:32:45.786Z,2.00
2022-10-23T08:35:17.385Z,1.00
2022-10-23T08:37:46.519Z,1.90
2022-10-23T08:40:17.587Z,1.40
2022-10-23T08:43:12.726Z,3.13
2022-10-23T08:45:56.464Z,1.40
2022-10-23T08:48:51.500Z,1.65
2022-10-23T08:51:48.643Z,1.98
2022-10-23T08:54:22.849Z,1.23
2022-10-23T08:56:55.609Z,3.33
2022-10-23T08:59:33.096Z,1.75
2022-10-23T09:02:06.145Z,2.47
2022-10-23T09:04:35.769Z,1.23
2022-10-23T09:07:17.240Z,1.55
2022-10-23T09:10:04.659Z,0.68
2022-10-23T09:12:33.566Z,1.00
2022-10-23T09:15:22.251Z,1.15
2022-10-23T09:17:57.206Z,1.92
2022-10-23T09:20:28.535Z,2.38
2022-10-23T09:23:02.123Z,1.70
2022-10-23T09:25:33.085Z,1.83
2022-10-23T09:28:05.553Z,1.80
2022-10-23T09:30:37.739Z,0.85
2022-10-23T09:33:16.365Z,1.55
2022-10-23T09:35:57.284Z,1.77
2022-10-23T09:38:33.734Z,1.38
2022-10-23T09:41:07.485Z,1.95
2022-10-23T09:43:36.325Z,2.63
2022-10-23T09:46:09.725Z,1.65
2022-10-23T09:48:42.413Z,1.40
2022-10-23T09:51:19.419Z,2.22
2022-10-23T09:53:53.598Z,1.83
2022-10-23T09:56:27.841Z,1.63
2022-10-23T09:58:58.753Z,1.58
2022-10-23T10:01:30.435Z,1.38
2022-10-23T10:04:15.490Z,1.58
2022-10-23T10:06:44.618Z,0.88
2022-10-23T10:09:16.995Z,1.00
2022-10-23T10:11:51.215Z,0.50
2022-10-23T10:14:43.635Z,1.02
2022-10-23T10:17:21.664Z,1.02
2022-10-23T10:20:06.860Z,0.63
2022-10-23T10:22:43.745Z,0.57
2022-10-23T10:25:22.726Z,1.20
2022-10-23T10:28:02.075Z,0.82
2022-10-23T10:30:40.823Z,0.77
2022-10-23T10:33:18.410Z,0.70
2022-10-23T10:35:53.462Z,0.60
2022-10-23T10:38:43.666Z,0.93
2022-10-23T10:41:26.399Z,0.70
2022-10-23T10:44:07.044Z,0.70
2022-10-23T10:46:45.176Z,0.55
2022-10-23T10:49:20.125Z,1.25
2022-10-23T10:52:21.780Z,0.68
2022-10-23T10:55:00.043Z,0.75
2022-10-23T10:57:33.728Z,1.00
2022-10-23T11:00:06.589Z,0.93
2022-10-23T11:02:44.754Z,0.80
2022-10-23T11:05:23.982Z,1.05
2022-10-23T11:07:58.077Z,0.47
2022-10-23T11:10:28.354Z,0.95
2022-10-23T11:12:58.737Z,0.95
2022-10-23T11:15:30.447Z,0.57
2022-10-23T11:18:02.055Z,0.22
2022-10-23T11:20:50.821Z,0.63
2022-10-23T11:23:50.958Z,0.43
2022-10-23T11:26:42.904Z,0.32
2022-10-23T11:29:30.349Z,0.30
2022-10-23T11:32:15.598Z,0.65
2022-10-23T11:35:16.792Z,0.80
2022-10-23T11:37:45.850Z,0.82
2022-10-23T11:40:23.402Z,0.68
2022-10-23T11:42:52.727Z,0.82
2022-10-23T11:45:32.473Z,0.43
2022-10-23T11:48:03.272Z,0.63
2022-10-23T11:50:34.617Z,1.00
2022-10-23T11:53:14.555Z,0.77
2022-10-23T11:56:02.289Z,0.43
2022-10-23T11:58:43.942Z,0.82
2022-10-23T12:01:30.300Z,0.68
2022-10-23T12:04:02.691Z,0.60
2022-10-23T12:06:39.466Z,0.50
2022-10-23T12:09:21.890Z,0.63
2022-10-23T12:12:02.414Z,0.40
2022-10-23T12:14:34.728Z,0.73
2022-10-23T12:17:27.354Z,1.05
2022-10-23T12:20:03.195Z,0.80
2022-10-23T12:22:43.425Z,0.90
2022-10-23T12:25:16.566Z,0.60
2022-10-23T12:27:54.951Z,0.55
2022-10-23T12:30:26.291Z,0.68
2022-10-23T12:33:24.585Z,0.30
2022-10-23T12:36:23.165Z,0.63
2022-10-23T12:38:52.059Z,0.60
2022-10-23T12:41:26.279Z,1.08
2022-10-23T12:43:58.151Z,0.93
2022-10-23T12:46:32.119Z,0.75
2022-10-23T12:49:04.585Z,0.60
2022-10-23T12:51:34.839Z,1.13
2022-10-23T12:54:04.703Z,0.80
2022-10-23T12:56:36.931Z,1.05
2022-10-23T12:59:12.966Z,0.90
2022-10-23T13:01:43.433Z,0.80
2022-10-23T13:04:24.801Z,0.77
2022-10-23T13:06:55.893Z,1.27
2022-10-23T13:09:28.707Z,0.95
2022-10-23T13:12:24.413Z,1.10
2022-10-23T13:14:58.780Z,0.88
2022-10-23T13:17:39.216Z,0.30
2022-10-23T13:20:27.563Z,0.50
2022-10-23T13:23:09.451Z,0.90
2022-10-23T13:25:40.558Z,0.70
2022-10-23T13:28:22.210Z,0.68
2022-10-23T13:31:07.149Z,0.45
2022-10-23T13:33:38.789Z,0.40
2022-10-23T13:36:24.174Z,0.55
2022-10-23T13:39:04.915Z,0.52
2022-10-23T13:41:39.371Z,0.50
2022-10-23T13:44:08.668Z,0.50
2022-10-23T13:46:37.528Z,0.65
2022-10-23T13:49:06.520Z,0.85
2022-10-23T13:51:42.780Z,0.68
2022-10-23T13:54:16.623Z,0.40
2022-10-23T13:56:45.530Z,0.30
2022-10-23T13:59:15.163Z,0.68
2022-10-23T14:01:45.864Z,0.57
2022-10-23T14:04:16.797Z,0.90
2022-10-23T14:06:47.147Z,0.50
2022-10-23T14:09:19.192Z,0.30
2022-10-23T14:11:48.006Z,0.40
2022-10-23T14:14:16.802Z,0.10
2022-10-23T14:16:45.656Z,0.68
2022-10-23T14:19:14.475Z,0.35
2022-10-23T14:21:43.278Z,0.50
2022-10-23T14:24:14.816Z,0.35
2022-10-23T14:26:44.023Z,0.28
2022-10-23T14:29:21.186Z,0.88
2022-10-23T14:31:53.039Z,0.40
2022-10-23T14:34:22.262Z,0.50
2022-10-23T14:37:03.759Z,0.40
2022-10-23T14:39:38.082Z,1.00
2022-10-23T14:42:07.137Z,0.30
2022-10-23T14:44:36.375Z,0.63
2022-10-23T14:47:05.363Z,0.70
2022-10-23T14:49:35.654Z,0.40
2022-10-23T14:52:04.678Z,0.80
2022-10-23T14:54:35.205Z,0.30
2022-10-23T14:57:05.690Z,0.30
2022-10-23T14:59:34.573Z,0.55
2022-10-23T15:02:23.452Z,7.35
2022-10-23T15:04:52.615Z,1.48
2022-10-23T15:07:21.417Z,1.35
2022-10-23T15:09:51.895Z,4.20
2022-10-23T15:12:22.154Z,3.15
2022-10-23T15:14:50.937Z,2.30
2022-10-23T15:17:19.724Z,1.55
2022-10-23T15:19:48.575Z,2.78
2022-10-23T15:22:17.402Z,2.13
2022-10-23T15:24:46.393Z,2.50
2022-10-23T15:27:15.332Z,7.90
2022-10-23T15:29:46.227Z,31.33
2022-10-23T15:32:15.034Z,34.88
2022-10-23T15:34:43.894Z,7.00
2022-10-23T15:37:12.885Z,4.78
2022-10-23T15:39:41.836Z,4.78
2022-10-23T15:42:11.907Z,3.65
2022-10-23T15:44:41.434Z,5.45
2022-10-23T15:47:11.957Z,12.57
2022-10-23T15:49:41.061Z,10.38
2022-10-23T15:52:11.385Z,9.65
2022-10-23T15:54:40.357Z,9.57
2022-10-23T15:57:09.143Z,11.18
2022-10-23T15:59:37.973Z,12.60
2022-10-23T16:02:07.019Z,13.70
2022-10-23T16:04:37.344Z,12.02
2022-10-23T16:07:07.262Z,14.23
2022-10-23T16:09:36.927Z,12.63
2022-10-23T16:12:06.302Z,13.85
2022-10-23T16:14:35.135Z,14.07
2022-10-23T16:17:04.058Z,16.05
2022-10-23T16:19:32.889Z,7.75
2022-10-23T16:22:03.785Z,7.88
2022-10-23T16:24:32.891Z,8.07
2022-10-23T16:27:02.003Z,9.25
2022-10-23T16:29:30.923Z,8.55
2022-10-23T16:32:00.367Z,7.78
2022-10-23T16:34:29.206Z,5.47
2022-10-23T16:36:58.258Z,4.47
2022-10-23T16:39:36.164Z,6.82
2022-10-23T16:42:24.050Z,6.57
2022-10-23T16:45:06.769Z,7.43
2022-10-23T16:47:36.245Z,5.25
2022-10-23T16:50:05.965Z,3.42
2022-10-23T16:52:34.794Z,4.13
2022-10-23T16:55:05.398Z,3.42
2022-10-23T16:57:35.654Z,13.65
2022-10-23T17:00:06.291Z,17.23
2022-10-23T17:02:35.292Z,13.18
2022-10-23T17:05:04.271Z,8.57
2022-10-23T17:07:33.991Z,5.22
2022-10-23T17:10:04.268Z,6.50
2022-10-23T17:12:33.177Z,7.15
2022-10-23T17:15:02.042Z,9.77
2022-10-23T17:17:31.826Z,14.80
2022-10-23T17:20:00.668Z,15.60
2022-10-23T17:22:29.980Z,18.60
2022-10-23T17:24:59.846Z,15.20
2022-10-23T17:27:30.020Z,15.30
2022-10-23T17:29:59.253Z,15.68
2022-10-23T17:32:28.211Z,13.93
2022-10-23T17:34:57.081Z,15.45
2022-10-23T17:37:25.885Z,10.50
2022-10-23T17:39:54.812Z,10.15
2022-10-23T17:42:23.694Z,8.52
2022-10-23T17:44:53.903Z,6.05
2022-10-23T17:47:22.800Z,6.40
2022-10-23T17:49:51.631Z,5.30
2022-10-23T17:52:20.821Z,4.40
2022-10-23T17:54:52.689Z,3.40
2022-10-23T17:59:56.718Z,4.70
2022-10-23T18:02:25.665Z,4.47
2022-10-23T18:04:54.646Z,3.30
2022-10-23T18:07:24.300Z,3.42
2022-10-23T18:09:53.225Z,3.38
2022-10-23T18:12:22.817Z,4.00
2022-10-23T18:14:51.638Z,3.10
2022-10-23T18:17:21.903Z,3.40
2022-10-23T18:19:51.704Z,6.05
2022-10-23T18:22:20.528Z,8.68
2022-10-23T18:24:49.419Z,10.65
2022-10-23T18:27:18.340Z,9.02
2022-10-23T18:29:47.358Z,8.68
2022-10-23T18:32:16.159Z,10.35
2022-10-23T18:34:46.378Z,8.43
2022-10-23T18:37:15.259Z,9.18
2022-10-23T18:39:44.118Z,7.45
2022-10-23T18:42:12.909Z,8.85
2022-10-23T18:44:46.905Z,8.88
2022-10-23T18:49:50.975Z,8.18
2022-10-23T18:52:19.774Z,7.28
2022-10-23T18:54:48.646Z,7.68
2022-10-23T18:57:17.411Z,8.35
2022-10-23T18:59:46.218Z,7.28
2022-10-23T19:02:15.230Z,9.48
2022-10-23T19:04:44.182Z,11.35
2022-10-23T19:07:14.334Z,11.40
2022-10-23T19:09:43.605Z,11.07
2022-10-23T19:14:42.698Z,11.00
2022-10-23T19:17:17.057Z,10.05
2022-10-23T19:19:51.296Z,10.75
2022-10-23T19:22:21.664Z,10.38
2022-10-23T19:24:55.290Z,10.63
2022-10-23T19:27:24.275Z,11.10
2022-10-23T19:29:54.863Z,11.60
2022-10-23T19:32:23.747Z,12.13
2022-10-23T19:34:52.877Z,12.80
2022-10-23T19:37:24.057Z,15.38
2022-10-23T19:39:52.934Z,14.13
2022-10-23T19:42:21.798Z,16.50
2022-10-23T19:44:50.639Z,15.20
2022-10-23T19:47:19.449Z,19.50
2022-10-23T19:49:50.758Z,15.27
2022-10-23T19:52:22.203Z,16.83
2022-10-23T19:54:52.597Z,21.88
2022-10-23T19:57:22.645Z,22.13
2022-10-23T19:59:52.942Z,27.90
2022-10-23T20:02:22.443Z,20.35
2022-10-23T20:04:51.413Z,22.75
2022-10-23T20:07:20.251Z,17.45
2022-10-23T20:09:49.262Z,17.05
2022-10-23T20:12:19.635Z,12.60
2022-10-23T20:14:48.443Z,17.83
2022-10-23T20:17:17.370Z,16.60
2022-10-23T20:19:48.168Z,13.35
2022-10-23T20:22:17.057Z,12.60
2022-10-23T20:24:45.920Z,11.32
2022-10-23T20:27:15.031Z,13.32
2022-10-23T20:29:45.685Z,11.98
2022-10-23T20:32:15.486Z,13.60
2022-10-23T20:34:44.596Z,10.07
2022-10-23T20:37:13.394Z,13.77
2022-10-23T20:39:42.994Z,18.23
2022-10-23T20:42:11.765Z,17.60
2022-10-23T20:44:40.983Z,17.20
2022-10-23T20:47:11.241Z,13.60
2022-10-23T20:49:40.082Z,12.00
2022-10-23T20:52:08.947Z,11.23
2022-10-23T20:54:38.262Z,9.75
2022-10-23T20:57:07.226Z,8.30
2022-10-23T20:59:36.052Z,12.38
2022-10-23T21:02:05.266Z,10.00
2022-10-23T21:04:35.706Z,10.15
2022-10-23T21:07:10.070Z,10.38
2022-10-23T21:09:40.277Z,8.73
2022-10-23T21:12:09.896Z,8.45
2022-10-23T21:14:39.067Z,9.88
2022-10-23T21:17:10.835Z,9.88
2022-10-23T21:19:41.405Z,8.35
2022-10-23T21:22:10.435Z,7.97
2022-10-23T21:24:39.277Z,7.75
2022-10-23T21:27:08.185Z,6.97
2022-10-23T21:29:37.082Z,10.13
2022-10-23T21:32:06.401Z,11.15
2022-10-23T21:34:35.207Z,8.05
2022-10-23T21:37:14.216Z,8.70
2022-10-23T21:39:44.385Z,8.50
2022-10-23T21:42:13.782Z,6.55
2022-10-23T21:44:42.776Z,7.57
2022-10-23T21:47:11.598Z,7.60
2022-10-23T21:49:40.545Z,7.25
2022-10-23T21:52:10.774Z,7.40
2022-10-23T21:54:39.644Z,7.80
2022-10-23T21:57:15.320Z,6.97
2022-10-23T21:59:44.237Z,12.90
2022-10-23T22:02:13.231Z,15.98
2022-10-23T22:04:42.215Z,17.33
2022-10-23T22:07:14.990Z,17.08
2022-10-23T22:09:44.606Z,16.55
2022-10-23T22:12:13.635Z,13.45
2022-10-23T22:14:42.627Z,10.73
2022-10-23T22:17:11.503Z,11.57
2022-10-23T22:19:40.333Z,10.05
2022-10-23T22:22:09.330Z,8.40
2022-10-23T22:24:39.546Z,9.50
2022-10-23T22:27:08.394Z,10.98
2022-10-23T22:29:37.220Z,11.38
2022-10-23T22:32:06.375Z,8.88
2022-10-23T22:34:51.813Z,7.60
2022-10-23T22:37:21.472Z,5.70
2022-10-23T22:39:53.440Z,5.50
2022-10-23T22:42:22.296Z,6.43
2022-10-23T22:44:51.165Z,4.35
2022-10-23T22:47:19.999Z,6.38
2022-10-23T22:49:48.874Z,6.85
2022-10-23T22:52:17.666Z,5.30
2022-10-23T22:54:46.566Z,6.97
2022-10-23T22:57:16.816Z,6.38
2022-10-23T22:59:45.694Z,6.10
2022-10-23T23:02:14.573Z,5.75
2022-10-23T23:04:43.429Z,5.57
2022-10-23T23:07:13.797Z,6.88
2022-10-23T23:09:44.142Z,7.05
2022-10-23T23:12:16.613Z,8.02
2022-10-23T23:14:45.493Z,7.10
2022-10-23T23:17:14.264Z,7.28
2022-10-23T23:19:43.118Z,6.03
2022-10-23T23:22:11.920Z,6.45
2022-10-23T23:24:40.956Z,6.95
2022-10-23T23:27:09.804Z,5.53
2022-10-23T23:29:40.221Z,8.27
2022-10-23T23:32:09.185Z,10.48
2022-10-23T23:34:38.042Z,7.60
2022-10-23T23:37:06.838Z,6.40
2022-10-23T23:39:35.684Z,5.22
2022-10-23T23:42:05.014Z,5.55
2022-10-23T23:44:38.886Z,6.28
2022-10-23T23:47:16.128Z,5.30
2022-10-23T23:49:45.012Z,7.50
2022-10-23T23:52:13.910Z,6.85
2022-10-23T23:54:42.785Z,6.10
2022-10-23T23:57:12.038Z,6.15
2022-10-23T23:59:41.716Z,5.55
